Bogashevo Airport
UNTT : rendu visible

Aérodrome :











RETROUVEZ-NOUS SUR...

 
LOGIN :

S'inscrire | Disclaimer

   EN    FR    IT 

 









Légende :    VFR   VFR Marginal   IFR   IFR Intensif   IFR Très Intensif
Visi : 
Plafond : 
>= 8 km
>= 3000ft
5 à 8 km
1000 à 3000 ft
1500m à 5 km
500 à 1000 ft
800 à 1500m
200 à 500 ft
< 800m
< 200 ft
Symboles :   Orages  Brouillard  Fortes neiges  Fortes précipitations  Vent > 20 kt






- Altitude de l'aérodrome : 597 ft
- Code IATA : TOF


UNTT - Bogashevo

DERNIER METAR :
  • 280600Z 26007MPS 6000 -SHSN SCT016CB BKN032 M01/M04 Q1011 R21/490235 NOSIG RMK QFE743

METARs EXPIRÉS :
  • 280530Z 26006MPS 9999 SCT019CB BKN046 M00/M03 Q1010 R21/490235 NOSIG RMK QFE743
  • 280500Z 26004MPS 9000 -SHSN SCT008 BKN017CB M01/M02 Q1010 R21/490235 NOSIG RMK QFE742
  • 280430Z 27004MPS 4900 -SHSN SCT006 BKN018CB M01/M02 Q1009 R21/490235 NOSIG RMK QFE742
  • 280400Z 27006MPS 7000 -SHSN SCT011 BKN020CB M01/M02 Q1009 R21/490235 NOSIG RMK QFE742

TAF TAF UNTT
Valide du 28 à 06h jusqu'au 28 à 15h UTC


280458Z 2806/2815 26006G14MPS 6000 -SHSN SCT008 BKN020CB
TEMPO 2806/2812 1600 SHSN SCT005 BKN016CB



MET'MAP, la Météo Aéronautique d'un coup d'oeil ! - Copyright ORBIFLY Décembre 2007 - Disclaimer

ORBIFLY MET'MAP TEAM :

Programmation & Développement : Alexandra Zaïnal
Sur une idée originale de : Baudouin d'Aumeries
Assistance à la programmation : Marc-Olivier Méhu
Soutien technique & logistique : Manuel Goepfert

Contact : metmap@orbifly.com




SOURCES & CREDITS :

   NOAA       Earth
Advisory